Airport ID:KEDC
Update Time (UTC):03 JUN 20 16:56
Wind Speed (Knots):5
Wind Direction (Magnetic):170
Temperature (°C):29
Dew Point (°C):20
Humidity (%):60
Altimeter (inHg):30.02
Density Altitude (Feet):2300
Visibility (Miles):10
Clouds (Hundreds of feet):CLR
Present Weather:NO PRECIPITATION
METAR:METAR KEDC 031655Z AUTO 00000KT 10SM CLR 29/20 A3002 RMK AO2

The data displayed is for advisory purposes only and is not to be used for flight planning or operations.